createdAt,value
2023-05-24T00:01:10.558Z,20.21
2023-05-24T00:04:16.288Z,20.18
2023-05-24T00:07:21.657Z,20.11
2023-05-24T00:10:26.931Z,19.99
2023-05-24T00:13:32.483Z,19.93
2023-05-24T00:16:38.025Z,19.96
2023-05-24T00:19:43.860Z,20.02
2023-05-24T00:22:49.366Z,19.97
2023-05-24T00:25:55.101Z,20.02
2023-05-24T00:29:00.531Z,19.97
2023-05-24T00:32:06.620Z,20.04
2023-05-24T00:35:11.896Z,19.90
2023-05-24T00:38:17.656Z,19.93
2023-05-24T00:41:23.296Z,19.91
2023-05-24T00:44:29.229Z,19.83
2023-05-24T00:47:35.047Z,19.82
2023-05-24T00:50:42.123Z,19.75
2023-05-24T00:53:49.202Z,19.82
2023-05-24T00:56:57.432Z,19.78
2023-05-24T01:00:06.232Z,19.74
2023-05-24T01:03:11.924Z,19.60
2023-05-24T01:06:18.108Z,19.73
2023-05-24T01:09:34.773Z,19.61
2023-05-24T01:12:53.988Z,19.58
2023-05-24T01:16:15.862Z,19.44
2023-05-24T01:19:45.095Z,19.34
2023-05-24T01:23:27.132Z,18.94
2023-05-24T01:26:40.592Z,19.18
2023-05-24T01:29:53.685Z,18.76
2023-05-24T01:32:59.089Z,19.06
2023-05-24T01:36:05.069Z,19.18
2023-05-24T01:39:11.671Z,19.03
2023-05-24T01:42:25.560Z,19.10
2023-05-24T01:45:59.937Z,18.97
2023-05-24T01:49:23.713Z,19.13
2023-05-24T01:52:34.106Z,19.01
2023-05-24T01:55:41.349Z,18.80
2023-05-24T01:58:48.064Z,18.76
2023-05-24T02:01:54.194Z,18.67
2023-05-24T02:05:00.070Z,18.73
2023-05-24T02:08:06.092Z,18.67
2023-05-24T02:11:11.327Z,18.60
2023-05-24T02:14:20.177Z,18.53
2023-05-24T02:17:27.125Z,18.46
2023-05-24T02:20:37.551Z,18.19
2023-05-24T02:23:43.573Z,18.10
2023-05-24T02:26:49.372Z,18.27
2023-05-24T02:29:55.021Z,18.10
2023-05-24T02:33:01.044Z,18.10
2023-05-24T02:36:06.765Z,17.98
2023-05-24T02:39:12.370Z,17.92
2023-05-24T02:42:17.798Z,18.03
2023-05-24T02:45:23.381Z,17.93
2023-05-24T02:48:28.931Z,17.85
2023-05-24T02:51:34.529Z,17.81
2023-05-24T02:54:40.145Z,17.89
2023-05-24T02:57:45.824Z,17.92
2023-05-24T03:00:51.508Z,17.83
2023-05-24T03:03:59.292Z,17.95
2023-05-24T03:07:05.017Z,17.84
2023-05-24T03:10:11.553Z,17.68
2023-05-24T03:13:17.701Z,17.56
2023-05-24T03:16:23.088Z,17.62
2023-05-24T03:19:28.385Z,17.60
2023-05-24T03:22:35.560Z,17.62
2023-05-24T03:25:41.875Z,17.50
2023-05-24T03:28:48.215Z,17.49
2023-05-24T03:31:54.375Z,17.44
2023-05-24T03:35:01.822Z,17.41
2023-05-24T03:38:07.437Z,17.42
2023-05-24T03:41:15.678Z,17.63
2023-05-24T03:44:21.416Z,17.69
2023-05-24T03:47:27.417Z,17.69
2023-05-24T03:50:33.020Z,17.62
2023-05-24T03:53:38.363Z,17.53
2023-05-24T03:56:44.184Z,17.54
2023-05-24T03:59:49.521Z,17.48
2023-05-24T04:02:56.330Z,17.29
2023-05-24T04:06:02.307Z,17.35
2023-05-24T04:09:10.355Z,17.49
2023-05-24T04:12:15.867Z,17.54
2023-05-24T04:15:21.642Z,17.15
2023-05-24T04:18:27.321Z,17.47
2023-05-24T04:21:35.229Z,17.73
2023-05-24T04:24:42.141Z,17.81
2023-05-24T04:27:49.101Z,17.54
2023-05-24T04:30:55.375Z,17.63
2023-05-24T04:34:00.956Z,17.81
2023-05-24T04:37:06.508Z,18.00
2023-05-24T04:40:12.457Z,17.94
2023-05-24T04:43:18.469Z,17.67
2023-05-24T04:46:23.743Z,18.06
2023-05-24T04:49:29.126Z,18.34
2023-05-24T04:52:36.934Z,18.46
2023-05-24T04:55:43.478Z,18.59
2023-05-24T04:58:49.446Z,18.69
2023-05-24T05:01:55.218Z,18.78
2023-05-24T05:05:01.148Z,19.10
2023-05-24T05:08:06.836Z,18.96
2023-05-24T05:11:13.158Z,19.23
2023-05-24T05:14:18.753Z,19.53
2023-05-24T05:17:24.379Z,19.64
2023-05-24T05:20:30.290Z,19.85
2023-05-24T05:23:36.619Z,19.83
2023-05-24T05:26:42.958Z,20.01
2023-05-24T05:29:48.679Z,20.14
2023-05-24T05:32:54.547Z,20.25
2023-05-24T05:36:00.904Z,20.31
2023-05-24T05:39:06.280Z,20.53
2023-05-24T05:42:11.997Z,20.65
2023-05-24T05:45:17.934Z,20.65
2023-05-24T05:48:23.921Z,20.58
2023-05-24T05:51:29.856Z,20.66
2023-05-24T05:54:36.244Z,20.78
2023-05-24T05:57:41.955Z,20.68
2023-05-24T06:00:47.636Z,20.68
2023-05-24T06:03:53.150Z,20.82
2023-05-24T06:06:59.020Z,20.65
2023-05-24T06:10:04.769Z,20.80
2023-05-24T06:13:10.670Z,20.97
2023-05-24T06:16:16.897Z,21.00
2023-05-24T06:19:22.464Z,21.13
2023-05-24T06:22:31.394Z,21.19
2023-05-24T06:25:38.882Z,21.32
2023-05-24T06:28:45.107Z,21.32
2023-05-24T06:31:51.024Z,21.54
2023-05-24T06:34:56.832Z,21.34
2023-05-24T06:38:02.336Z,21.68
2023-05-24T06:41:09.216Z,21.76
2023-05-24T06:44:15.229Z,21.51
2023-05-24T06:47:22.786Z,21.76
2023-05-24T06:50:28.683Z,21.78
2023-05-24T06:53:34.168Z,21.98
2023-05-24T06:56:40.186Z,21.89
2023-05-24T06:59:46.360Z,21.96
2023-05-24T07:02:52.237Z,22.09
2023-05-24T07:05:58.309Z,22.58
2023-05-24T07:09:05.303Z,22.42
2023-05-24T07:12:11.372Z,22.41
2023-05-24T07:15:17.012Z,22.12
2023-05-24T07:18:22.502Z,22.17
2023-05-24T07:21:28.015Z,22.28
2023-05-24T07:24:33.450Z,22.39
2023-05-24T07:27:39.277Z,22.40
2023-05-24T07:30:45.714Z,22.44
2023-05-24T07:33:51.333Z,22.53
2023-05-24T07:36:59.563Z,22.86
2023-05-24T07:40:06.969Z,22.73
2023-05-24T07:43:13.041Z,23.06
2023-05-24T07:46:18.870Z,22.98
2023-05-24T07:49:25.064Z,23.04
2023-05-24T07:52:31.545Z,22.84
2023-05-24T07:55:36.768Z,22.92
2023-05-24T07:58:42.198Z,22.98
2023-05-24T08:01:48.058Z,23.01
2023-05-24T08:04:53.882Z,23.08
2023-05-24T08:07:59.177Z,23.14
2023-05-24T08:11:04.311Z,23.25
2023-05-24T08:14:09.795Z,23.42
2023-05-24T08:17:15.212Z,23.48
2023-05-24T08:20:21.284Z,23.58
2023-05-24T08:23:27.241Z,23.53
2023-05-24T08:26:33.022Z,23.87
2023-05-24T08:29:39.579Z,23.77
2023-05-24T08:32:44.784Z,23.46
2023-05-24T08:35:53.343Z,23.60
2023-05-24T08:39:00.230Z,23.75
2023-05-24T08:42:09.273Z,23.99
2023-05-24T08:45:16.508Z,23.67
2023-05-24T08:48:22.734Z,23.88
2023-05-24T08:51:28.034Z,23.67
2023-05-24T08:54:38.079Z,23.75
2023-05-24T08:57:46.071Z,24.01
2023-05-24T09:00:51.658Z,23.88
2023-05-24T09:03:57.523Z,23.84
2023-05-24T09:07:03.283Z,23.80
2023-05-24T09:10:10.051Z,24.05
2023-05-24T09:13:16.296Z,24.45
2023-05-24T09:16:22.493Z,24.42
2023-05-24T09:19:29.282Z,24.20
2023-05-24T09:22:38.146Z,24.23
2023-05-24T09:25:47.213Z,24.10
2023-05-24T09:28:56.195Z,24.08
2023-05-24T09:32:02.625Z,24.27
2023-05-24T09:35:09.939Z,24.56
2023-05-24T09:38:19.751Z,24.23
2023-05-24T09:41:25.795Z,24.56
2023-05-24T09:44:31.455Z,24.67
2023-05-24T09:47:39.004Z,24.37
2023-05-24T09:50:47.996Z,24.72
2023-05-24T09:53:58.232Z,24.52
2023-05-24T09:57:05.192Z,24.62
2023-05-24T10:00:17.366Z,24.59
2023-05-24T10:03:25.544Z,24.96
2023-05-24T10:06:35.436Z,24.86
2023-05-24T10:09:40.994Z,24.65
2023-05-24T10:12:47.230Z,24.74
2023-05-24T10:15:52.523Z,24.71
2023-05-24T10:18:57.949Z,24.78
2023-05-24T10:22:07.727Z,25.10
2023-05-24T10:25:22.101Z,25.31
2023-05-24T10:28:28.600Z,25.28
2023-05-24T10:31:39.077Z,25.48
2023-05-24T10:34:46.291Z,25.36
2023-05-24T10:37:52.768Z,25.55
2023-05-24T10:41:39.245Z,25.70
2023-05-24T10:44:45.356Z,25.56
2023-05-24T10:47:51.314Z,25.66
2023-05-24T10:50:57.650Z,25.42
2023-05-24T10:54:14.008Z,25.53
2023-05-24T10:57:25.110Z,25.35
2023-05-24T11:00:48.378Z,25.62
2023-05-24T11:03:54.073Z,25.90
2023-05-24T11:07:05.690Z,25.73
2023-05-24T11:10:17.213Z,25.78
2023-05-24T11:13:22.858Z,25.87
2023-05-24T11:16:40.686Z,25.93
2023-05-24T11:19:55.981Z,25.89
2023-05-24T11:23:12.339Z,25.62
2023-05-24T11:26:17.583Z,25.92
2023-05-24T11:29:23.473Z,25.98
2023-05-24T11:32:29.489Z,26.08
2023-05-24T11:35:34.600Z,25.64
2023-05-24T11:38:41.450Z,25.69
2023-05-24T11:41:48.024Z,26.41
2023-05-24T11:44:54.054Z,26.26
2023-05-24T11:48:05.511Z,26.51
2023-05-24T11:51:11.884Z,26.11
2023-05-24T11:54:19.405Z,26.12
2023-05-24T11:57:38.635Z,26.16
2023-05-24T12:00:44.816Z,26.12
2023-05-24T12:03:53.993Z,25.67
2023-05-24T12:07:00.024Z,25.72
2023-05-24T12:10:06.902Z,25.70
2023-05-24T12:13:26.299Z,25.98
2023-05-24T12:16:33.547Z,25.61
2023-05-24T12:19:39.789Z,25.54
2023-05-24T12:22:53.014Z,25.81
2023-05-24T12:26:02.411Z,25.63
2023-05-24T12:29:08.123Z,25.68
2023-05-24T12:32:14.821Z,25.70
2023-05-24T12:35:21.501Z,25.38
2023-05-24T12:38:27.008Z,25.57
2023-05-24T12:41:33.713Z,25.46
2023-05-24T12:44:40.204Z,25.55
2023-05-24T12:47:45.461Z,25.61
2023-05-24T12:50:51.513Z,25.43
2023-05-24T12:53:57.450Z,25.66
2023-05-24T12:57:03.604Z,25.68
2023-05-24T13:00:11.046Z,25.80
2023-05-24T13:03:17.875Z,25.64
2023-05-24T13:06:23.605Z,25.84
2023-05-24T13:09:29.438Z,25.51
2023-05-24T13:12:34.930Z,25.58
2023-05-24T13:15:42.183Z,25.90
2023-05-24T13:18:49.915Z,25.82
2023-05-24T13:21:55.832Z,25.75
2023-05-24T13:25:02.951Z,25.83
2023-05-24T13:28:08.478Z,26.11
2023-05-24T13:31:14.716Z,26.09
2023-05-24T13:34:20.447Z,25.65
2023-05-24T13:37:27.481Z,25.74
2023-05-24T13:40:33.207Z,25.72
2023-05-24T13:43:38.737Z,26.14
2023-05-24T13:46:44.794Z,26.19
2023-05-24T13:49:50.314Z,26.13
2023-05-24T13:52:56.538Z,26.29
2023-05-24T13:56:03.129Z,25.94
2023-05-24T14:17:50.979Z,25.69
2023-05-24T14:20:56.530Z,25.69
2023-05-24T14:24:01.964Z,26.02
2023-05-24T14:27:07.690Z,26.26
2023-05-24T14:30:13.157Z,26.18
2023-05-24T14:33:18.730Z,26.42
2023-05-24T14:36:24.452Z,26.58
2023-05-24T14:39:30.413Z,26.40
2023-05-24T14:42:36.345Z,26.11
2023-05-24T14:45:43.244Z,26.11
2023-05-24T14:48:49.195Z,26.21
2023-05-24T14:51:54.725Z,26.26
2023-05-24T14:55:00.377Z,26.09
2023-05-24T14:58:09.546Z,25.84
2023-05-24T15:01:15.120Z,25.53
2023-05-24T15:04:20.649Z,25.28
2023-05-24T15:07:26.670Z,25.11
2023-05-24T15:10:32.821Z,24.99
2023-05-24T15:13:38.749Z,24.88
2023-05-24T15:16:44.179Z,24.86
2023-05-24T15:19:49.627Z,24.73
2023-05-24T15:22:54.769Z,24.73
2023-05-24T15:26:00.603Z,24.64
2023-05-24T15:29:06.109Z,24.59
2023-05-24T15:32:11.794Z,24.56
2023-05-24T15:35:18.068Z,24.48
2023-05-24T15:38:23.575Z,24.50
2023-05-24T15:41:29.004Z,24.48
2023-05-24T15:44:34.073Z,24.51
2023-05-24T15:47:40.673Z,24.41
2023-05-24T15:53:54.455Z,24.29
2023-05-24T15:57:02.118Z,24.28
2023-05-24T16:00:08.327Z,24.16
2023-05-24T16:03:20.404Z,24.07
2023-05-24T16:06:26.515Z,23.95
2023-05-24T16:09:32.382Z,23.88
2023-05-24T16:12:37.533Z,23.85
2023-05-24T16:15:43.207Z,23.76
2023-05-24T16:18:48.623Z,23.74
2023-05-24T16:21:54.950Z,23.66
2023-05-24T16:25:01.122Z,23.56
2023-05-24T16:28:07.330Z,23.50
2023-05-24T16:31:13.533Z,23.36
2023-05-24T16:34:19.558Z,23.19
2023-05-24T16:37:25.488Z,23.08
2023-05-24T16:40:32.619Z,22.83
2023-05-24T16:43:38.157Z,22.64
2023-05-24T16:46:46.808Z,22.46
2023-05-24T16:49:52.738Z,22.43
2023-05-24T16:52:59.897Z,22.33
2023-05-24T16:56:05.994Z,22.41
2023-05-24T16:59:11.938Z,22.29
2023-05-24T17:02:17.666Z,22.30
2023-05-24T17:05:23.306Z,22.19
2023-05-24T17:08:30.669Z,22.24
2023-05-24T17:11:37.723Z,22.35
2023-05-24T17:14:44.195Z,22.12
2023-05-24T17:17:52.966Z,22.14
2023-05-24T17:21:04.773Z,22.10
2023-05-24T17:24:10.843Z,22.08
2023-05-24T17:27:19.957Z,21.97
2023-05-24T17:30:30.695Z,21.79
2023-05-24T17:33:38.199Z,21.60
2023-05-24T17:36:44.986Z,21.66
2023-05-24T17:39:53.570Z,21.77
2023-05-24T17:42:59.929Z,21.76
2023-05-24T17:46:09.764Z,21.79
2023-05-24T17:49:15.165Z,21.70
2023-05-24T17:52:20.671Z,21.63
2023-05-24T17:55:27.477Z,21.47
2023-05-24T17:58:37.165Z,21.48
2023-05-24T18:01:44.232Z,21.42
2023-05-24T18:04:53.038Z,21.24
2023-05-24T18:08:01.567Z,21.21
2023-05-24T18:11:11.610Z,21.44
2023-05-24T18:14:17.447Z,21.23
2023-05-24T18:17:23.273Z,20.83
2023-05-24T18:20:30.301Z,20.32
2023-05-24T18:23:40.423Z,20.47
2023-05-24T18:26:47.702Z,19.77
2023-05-24T18:29:54.316Z,19.71
2023-05-24T18:36:08.833Z,19.74
2023-05-24T18:39:14.254Z,19.38
2023-05-24T18:42:20.963Z,19.29
2023-05-24T18:45:26.285Z,19.10
2023-05-24T18:48:32.971Z,19.47
2023-05-24T18:51:41.581Z,19.51
2023-05-24T18:54:47.051Z,19.76
2023-05-24T18:57:55.435Z,19.96
2023-05-24T19:01:01.214Z,19.84
2023-05-24T19:04:08.718Z,19.81
2023-05-24T19:07:16.889Z,19.80
2023-05-24T19:10:24.205Z,19.83
2023-05-24T19:13:31.827Z,19.87
2023-05-24T19:16:38.366Z,19.91
2023-05-24T19:19:45.513Z,19.77
2023-05-24T19:22:51.462Z,19.93
2023-05-24T19:26:02.527Z,19.86
2023-05-24T19:29:10.588Z,19.95
2023-05-24T19:32:16.318Z,19.85
2023-05-24T19:35:23.161Z,20.00
2023-05-24T19:38:30.326Z,19.93
2023-05-24T19:41:41.595Z,19.96
2023-05-24T19:44:51.076Z,19.82
2023-05-24T19:47:56.961Z,19.75
2023-05-24T19:51:02.206Z,19.70
2023-05-24T19:54:09.498Z,19.58
2023-05-24T19:57:16.458Z,19.66
2023-05-24T20:00:24.722Z,19.67
2023-05-24T20:03:34.764Z,19.66
2023-05-24T20:06:43.314Z,19.77
2023-05-24T20:09:50.507Z,19.67
2023-05-24T20:12:57.557Z,19.61
2023-05-24T20:16:12.046Z,19.80
2023-05-24T20:19:21.847Z,19.48
2023-05-24T20:22:29.879Z,19.50
2023-05-24T20:25:37.310Z,19.59
2023-05-24T20:28:45.497Z,19.44
2023-05-24T20:31:51.416Z,19.51
2023-05-24T20:34:58.862Z,19.57
2023-05-24T20:38:04.580Z,19.71
2023-05-24T20:41:14.140Z,19.64
2023-05-24T20:44:20.154Z,19.63
2023-05-24T20:47:30.290Z,19.47
2023-05-24T20:50:37.946Z,19.30
2023-05-24T20:53:46.190Z,19.17
2023-05-24T20:56:52.168Z,19.13
2023-05-24T21:00:00.221Z,19.37
2023-05-24T21:03:11.650Z,19.37
2023-05-24T21:06:17.186Z,19.47
2023-05-24T21:09:22.767Z,19.44
2023-05-24T21:12:31.162Z,19.42
2023-05-24T21:15:38.535Z,19.47
2023-05-24T21:18:43.827Z,19.48
2023-05-24T21:21:49.132Z,19.39
2023-05-24T21:24:56.140Z,19.23
2023-05-24T21:28:02.915Z,19.21
2023-05-24T21:31:08.059Z,19.23
2023-05-24T21:34:13.605Z,19.13
2023-05-24T21:37:18.841Z,19.22
2023-05-24T21:40:24.572Z,19.15
2023-05-24T21:43:29.907Z,19.13
2023-05-24T21:46:36.653Z,19.17
2023-05-24T21:49:42.391Z,19.10
2023-05-24T21:52:47.894Z,19.08
2023-05-24T21:55:53.218Z,18.97
2023-05-24T21:58:58.738Z,18.94
2023-05-24T22:02:04.431Z,18.81
2023-05-24T22:05:10.413Z,18.72
2023-05-24T22:08:15.818Z,18.93
2023-05-24T22:11:21.704Z,18.82
2023-05-24T22:14:27.336Z,18.77
2023-05-24T22:17:33.314Z,18.78
2023-05-24T22:20:38.932Z,18.79
2023-05-24T22:23:44.309Z,18.74
2023-05-24T22:26:50.195Z,18.80
2023-05-24T22:29:56.012Z,18.66
2023-05-24T22:33:01.998Z,18.84
2023-05-24T22:36:07.413Z,18.79
2023-05-24T22:39:12.731Z,18.68
2023-05-24T22:42:18.227Z,18.69
2023-05-24T22:45:23.573Z,18.66
2023-05-24T22:48:28.891Z,18.54
2023-05-24T22:51:34.406Z,18.62
2023-05-24T22:54:39.857Z,18.55
2023-05-24T22:57:45.178Z,18.57
2023-05-24T23:00:51.636Z,18.65
2023-05-24T23:04:07.770Z,18.60
2023-05-24T23:07:23.099Z,18.59
2023-05-24T23:10:28.346Z,18.59
2023-05-24T23:13:36.183Z,18.66
2023-05-24T23:16:45.984Z,18.75
2023-05-24T23:19:51.606Z,18.87
2023-05-24T23:22:59.291Z,18.96
2023-05-24T23:26:04.568Z,19.01
2023-05-24T23:29:10.381Z,19.12
2023-05-24T23:32:15.631Z,19.15
2023-05-24T23:35:21.377Z,19.17
2023-05-24T23:38:26.642Z,19.20
2023-05-24T23:41:31.823Z,19.23
2023-05-24T23:44:37.404Z,19.20
2023-05-24T23:47:42.611Z,19.23
2023-05-24T23:50:54.000Z,19.21
2023-05-24T23:54:01.295Z,19.25
2023-05-24T23:57:07.912Z,19.19
